Time;durP1;ratioP1;P1;durP2;ratioP2;P2;SDS_P1;SDS_P2;PMS_P1;PMS_P2;Temp;Humidity;BMP_temperature;BMP_pressure;BME280_temperature;BME280_humidity;BME280_pressure;Samples;Min_cycle;Max_cycle;Signal;HPM_P1;HPM_P2
2023/09/03 00:01:37;;;;;;;6.80;3.38;;;;;;;25.79;50.73;100673.66;5114056;28;20039;-68
2023/09/03 00:04:08;;;;;;;5.15;3.05;;;;;;;25.78;50.82;100674.69;5113825;28;20221;-68
2023/09/03 00:06:36;;;;;;;4.55;3.00;;;;;;;25.77;50.39;100683.88;5113880;28;20040;-68
2023/09/03 00:09:05;;;;;;;4.43;2.80;;;;;;;25.76;50.45;100684.91;5113744;28;20488;-68
2023/09/03 00:11:33;;;;;;;6.38;3.22;;;;;;;25.73;50.93;100680.66;5113395;28;20043;-68
2023/09/03 00:14:02;;;;;;;6.93;3.45;;;;;;;25.73;50.91;100682.56;5113556;28;20108;-68
2023/09/03 00:16:31;;;;;;;6.10;3.20;;;;;;;25.71;50.89;100682.75;5113666;28;20043;-69
2023/09/03 00:19:00;;;;;;;4.93;3.00;;;;;;;25.68;50.80;100678.47;5113284;28;20039;-68
2023/09/03 00:21:28;;;;;;;5.25;3.17;;;;;;;25.68;50.86;100683.94;5113198;28;20058;-68
2023/09/03 00:23:56;;;;;;;6.13;3.40;;;;;;;25.67;50.95;100682.22;5113235;28;20047;-68
2023/09/03 00:26:26;;;;;;;4.70;2.90;;;;;;;25.65;50.91;100669.75;5113077;28;20040;-69
2023/09/03 00:28:54;;;;;;;6.03;3.20;;;;;;;25.64;50.75;100663.44;5113243;28;20245;-68
2023/09/03 00:31:23;;;;;;;6.70;3.33;;;;;;;25.62;51.33;100665.50;5113357;28;20047;-68
2023/09/03 00:33:53;;;;;;;4.60;2.70;;;;;;;25.60;51.14;100670.31;5113054;28;20470;-69
2023/09/03 00:36:21;;;;;;;5.18;2.97;;;;;;;25.57;51.24;100673.38;5113120;28;20503;-68
2023/09/03 00:38:50;;;;;;;5.45;3.20;;;;;;;25.58;51.16;100669.66;5113171;28;20127;-69
2023/09/03 00:41:18;;;;;;;6.47;3.15;;;;;;;25.56;51.19;100668.94;5115337;28;20040;-68
2023/09/03 00:43:46;;;;;;;5.15;3.00;;;;;;;25.54;51.19;100659.25;5116122;28;20093;-68
2023/09/03 00:46:15;;;;;;;5.53;3.38;;;;;;;25.55;51.16;100660.94;5113597;28;20043;-68
2023/09/03 00:48:44;;;;;;;5.82;3.20;;;;;;;25.54;51.55;100662.81;5112640;28;20051;-68
2023/09/03 00:51:14;;;;;;;6.00;3.10;;;;;;;25.53;51.19;100669.31;5112717;28;20404;-68
2023/09/03 00:53:48;;;;;;;5.30;3.20;;;;;;;25.50;51.36;100661.50;5112896;28;20139;-68
2023/09/03 00:56:17;;;;;;;6.65;3.00;;;;;;;25.49;51.40;100661.69;5112802;28;20046;-68
2023/09/03 00:58:45;;;;;;;6.68;3.15;;;;;;;25.48;51.39;100662.69;5112719;28;20054;-68
2023/09/03 01:01:14;;;;;;;5.75;3.20;;;;;;;25.46;51.23;100668.31;5112533;28;20452;-68
2023/09/03 01:03:43;;;;;;;5.82;3.05;;;;;;;25.44;51.78;100658.63;5112615;28;20043;-69
2023/09/03 01:06:12;;;;;;;5.88;3.20;;;;;;;25.44;51.37;100664.94;5111579;28;20480;-69
2023/09/03 01:08:42;;;;;;;6.57;3.20;;;;;;;25.42;51.46;100661.53;5115708;28;20066;-69
2023/09/03 01:11:22;;;;;;;5.40;2.92;;;;;;;25.40;51.91;100652.69;5112348;28;20404;-68
2023/09/03 01:14:06;;;;;;;6.75;3.15;;;;;;;25.40;51.63;100652.69;5112358;28;20404;-68
2023/09/03 01:16:42;;;;;;;5.25;3.10;;;;;;;25.38;51.55;100650.13;5112282;28;20044;-67
2023/09/03 01:19:32;;;;;;;5.10;3.03;;;;;;;25.35;51.64;100647.72;5112440;28;20591;-68
2023/09/03 01:22:11;;;;;;;5.93;3.40;;;;;;;25.34;51.72;100643.31;5112394;28;20393;-68
2023/09/03 01:25:00;;;;;;;5.95;3.00;;;;;;;25.33;51.79;100640.75;5112187;28;20055;-68
2023/09/03 01:27:39;;;;;;;5.57;3.00;;;;;;;25.31;51.93;100632.75;5112039;28;20126;-68
2023/09/03 01:30:10;;;;;;;4.93;2.85;;;;;;;25.30;52.16;100630.22;5112371;28;20406;-68
2023/09/03 01:32:39;;;;;;;5.32;3.03;;;;;;;25.27;51.97;100636.00;5113844;28;20492;-69
2023/09/03 01:35:08;;;;;;;4.85;2.97;;;;;;;25.26;51.77;100639.75;5111975;28;20131;-67
2023/09/03 01:37:37;;;;;;;7.30;3.30;;;;;;;25.25;52.03;100643.53;5112061;28;20552;-68
2023/09/03 01:40:06;;;;;;;4.53;2.72;;;;;;;25.25;52.04;100636.19;5112239;28;20040;-68
2023/09/03 01:42:34;;;;;;;5.90;3.15;;;;;;;25.23;51.94;100640.13;5112055;28;20048;-69
2023/09/03 01:45:03;;;;;;;8.75;3.10;;;;;;;25.23;52.04;100646.44;5112162;28;20047;-69
2023/09/03 01:47:41;;;;;;;5.75;2.80;;;;;;;25.20;52.10;100643.22;5111982;28;20043;-68
2023/09/03 01:50:19;;;;;;;4.72;3.15;;;;;;;25.20;52.28;100640.50;5112420;28;20404;-69
2023/09/03 01:52:56;;;;;;;5.13;2.80;;;;;;;25.20;52.23;100637.75;5112037;28;20044;-68
2023/09/03 01:55:30;;;;;;;5.03;2.70;;;;;;;25.18;52.08;100639.78;5111764;28;20551;-68
2023/09/03 01:58:01;;;;;;;6.13;3.03;;;;;;;25.16;52.24;100639.13;5111762;28;20077;-68
2023/09/03 02:00:29;;;;;;;4.40;2.47;;;;;;;25.17;52.45;100638.09;5112432;28;20043;-68
2023/09/03 02:03:01;;;;;;;4.65;2.72;;;;;;;25.16;52.54;100641.84;5112039;28;20044;-69
2023/09/03 02:05:29;;;;;;;5.00;2.78;;;;;;;25.14;52.08;100646.66;5112107;28;20066;-69
2023/09/03 02:07:58;;;;;;;4.45;2.95;;;;;;;25.13;52.16;100648.53;5111728;28;20048;-69
2023/09/03 02:10:26;;;;;;;5.57;2.90;;;;;;;25.11;52.46;100637.78;5111542;28;20571;-69
2023/09/03 02:12:55;;;;;;;6.05;2.95;;;;;;;25.10;52.56;100641.56;5111198;28;20051;-68
2023/09/03 02:15:23;;;;;;;4.93;2.83;;;;;;;25.09;52.56;100637.13;5111900;28;20052;-69
2023/09/03 02:17:53;;;;;;;5.78;3.10;;;;;;;25.09;52.57;100649.88;5113794;28;20044;-69
2023/09/03 02:20:23;;;;;;;4.65;2.88;;;;;;;25.08;52.81;100646.31;5115985;28;20043;-69
2023/09/03 02:22:51;;;;;;;4.53;2.88;;;;;;;25.07;52.54;100643.78;5115762;28;20047;-69
2023/09/03 02:25:19;;;;;;;5.63;2.90;;;;;;;25.06;52.98;100653.84;5115746;28;20055;-68
2023/09/03 02:27:47;;;;;;;5.13;3.00;;;;;;;25.06;52.91;100656.56;5115531;28;20500;-69
2023/09/03 02:30:16;;;;;;;7.45;3.28;;;;;;;25.03;52.94;100656.06;5116087;28;20049;-68
2023/09/03 02:32:44;;;;;;;5.82;2.85;;;;;;;25.01;52.97;100669.03;5117546;28;20407;-69
2023/09/03 02:35:12;;;;;;;4.65;2.85;;;;;;;25.00;52.99;100657.25;5117926;28;20086;-68
2023/09/03 02:37:42;;;;;;;5.75;2.97;;;;;;;24.99;53.18;100660.97;5117752;28;20048;-68
2023/09/03 02:40:10;;;;;;;8.32;3.10;;;;;;;24.97;53.18;100663.03;5117645;28;20048;-68
2023/09/03 02:42:39;;;;;;;5.65;2.90;;;;;;;24.96;53.22;100661.34;5117638;28;20047;-68
2023/09/03 02:45:08;;;;;;;5.50;3.28;;;;;;;24.95;53.26;100665.09;5117536;28;20078;-69
2023/09/03 02:47:36;;;;;;;5.28;2.97;;;;;;;24.95;53.30;100676.03;5116793;28;20130;-70
2023/09/03 02:50:05;;;;;;;5.38;3.03;;;;;;;24.93;53.25;100667.16;5117069;28;20048;-69
2023/09/03 02:52:34;;;;;;;5.03;3.00;;;;;;;24.94;53.54;100668.00;5115092;28;20051;-69
2023/09/03 02:55:03;;;;;;;5.32;3.05;;;;;;;24.91;53.25;100676.56;5115059;28;20055;-69
2023/09/03 02:57:32;;;;;;;5.72;2.83;;;;;;;24.90;53.58;100672.97;5114958;28;20089;-68
2023/09/03 03:00:00;;;;;;;5.47;2.92;;;;;;;24.89;53.27;100664.94;5114978;28;20085;-68
2023/09/03 03:02:29;;;;;;;5.75;3.17;;;;;;;24.88;53.36;100663.25;5114944;28;20046;-68
2023/09/03 03:04:58;;;;;;;4.93;2.80;;;;;;;24.87;53.47;100662.41;5114853;28;20458;-69
2023/09/03 03:07:27;;;;;;;5.00;2.55;;;;;;;24.84;53.71;100660.03;5114715;28;20078;-69
2023/09/03 03:09:55;;;;;;;4.65;2.60;;;;;;;24.84;53.30;100660.03;5115475;28;20055;-69
2023/09/03 03:12:25;;;;;;;5.85;3.08;;;;;;;24.84;53.30;100660.03;5114779;28;20480;-68
2023/09/03 03:14:53;;;;;;;4.63;2.50;;;;;;;24.83;53.24;100661.06;5114632;28;20113;-68
2023/09/03 03:17:23;;;;;;;5.18;2.95;;;;;;;24.80;53.20;100650.47;5114447;28;20480;-68
2023/09/03 03:19:51;;;;;;;4.22;2.70;;;;;;;24.80;53.42;100653.19;5114520;28;20069;-67
2023/09/03 03:22:19;;;;;;;5.13;2.70;;;;;;;24.81;53.49;100663.13;5114715;28;20055;-68
2023/09/03 03:24:47;;;;;;;5.03;2.60;;;;;;;24.77;53.59;100668.03;5114491;28;20048;-68
2023/09/03 03:27:15;;;;;;;4.82;3.00;;;;;;;24.77;53.54;100669.94;5114414;28;20105;-69
2023/09/03 03:29:45;;;;;;;4.13;2.63;;;;;;;24.75;53.44;100674.72;5113455;28;20051;-68
2023/09/03 03:32:13;;;;;;;4.97;2.75;;;;;;;24.75;53.63;100680.16;5114333;28;20140;-68
2023/09/03 03:34:43;;;;;;;4.75;2.90;;;;;;;24.74;53.59;100681.19;5115360;28;20054;-70
2023/09/03 03:37:11;;;;;;;5.22;3.00;;;;;;;24.73;53.82;100682.22;5114714;28;20093;-68
2023/09/03 03:39:39;;;;;;;3.85;2.38;;;;;;;24.71;53.72;100689.72;5114178;28;20043;-68
2023/09/03 03:42:07;;;;;;;4.75;2.72;;;;;;;24.69;53.88;100698.06;5114154;28;20047;-67
2023/09/03 03:44:35;;;;;;;4.68;2.42;;;;;;;24.66;53.75;100694.84;5114057;28;20051;-68
2023/09/03 03:47:05;;;;;;;4.75;2.70;;;;;;;24.64;53.58;100705.94;5113928;28;20039;-70
2023/09/03 03:49:33;;;;;;;5.00;2.60;;;;;;;24.65;53.89;100710.34;5114340;28;20048;-69
2023/09/03 03:52:01;;;;;;;3.90;2.40;;;;;;;24.65;53.92;100728.59;5114146;28;20040;-69
2023/09/03 03:54:30;;;;;;;6.10;2.55;;;;;;;24.63;53.60;100753.31;5113907;28;20043;-68
2023/09/03 03:56:58;;;;;;;3.80;2.50;;;;;;;24.61;53.89;100760.84;5113718;28;20054;-68
2023/09/03 03:59:26;;;;;;;4.07;2.67;;;;;;;24.60;54.20;100769.16;5114232;28;20043;-68
2023/09/03 04:01:54;;;;;;;5.72;2.78;;;;;;;24.56;54.17;100771.38;5113963;28;20048;-69
2023/09/03 04:04:24;;;;;;;4.95;2.97;;;;;;;24.52;54.40;100765.44;5113850;28;20047;-69
2023/09/03 04:06:52;;;;;;;6.32;2.70;;;;;;;24.51;54.83;100769.19;5113651;28;20071;-69
2023/09/03 04:09:20;;;;;;;4.95;2.70;;;;;;;24.51;54.87;100777.38;5113540;28;20040;-68
2023/09/03 04:11:48;;;;;;;4.68;2.58;;;;;;;24.51;54.90;100787.38;5113453;28;20545;-69
2023/09/03 04:14:16;;;;;;;4.22;2.40;;;;;;;24.49;55.03;100792.16;5113585;28;20051;-68
2023/09/03 04:16:45;;;;;;;4.13;2.40;;;;;;;24.50;54.95;100800.16;5113771;28;20039;-68
2023/09/03 04:19:14;;;;;;;4.40;2.60;;;;;;;24.48;54.97;100802.22;5113743;28;20101;-69
2023/09/03 04:21:44;;;;;;;4.82;2.60;;;;;;;24.49;54.99;100795.75;5113478;28;20415;-68
2023/09/03 04:24:12;;;;;;;6.32;2.85;;;;;;;24.49;55.00;100801.19;5113479;28;20143;-69
2023/09/03 04:26:40;;;;;;;4.72;2.40;;;;;;;24.48;55.14;100796.78;5113164;28;20555;-68
2023/09/03 04:29:08;;;;;;;4.38;2.50;;;;;;;24.47;54.86;100788.75;5114126;28;20052;-69
2023/09/03 04:31:36;;;;;;;4.15;2.42;;;;;;;24.48;54.99;100783.13;5113055;28;20105;-68
2023/09/03 04:34:05;;;;;;;4.32;2.33;;;;;;;24.48;54.92;100768.66;5113057;28;20060;-69
2023/09/03 04:36:34;;;;;;;5.68;2.40;;;;;;;24.49;54.90;100773.06;5112970;28;20051;-68
2023/09/03 04:39:04;;;;;;;3.85;2.30;;;;;;;24.47;55.13;100759.63;5113017;28;20075;-68
2023/09/03 04:41:33;;;;;;;4.60;2.08;;;;;;;24.47;54.79;100759.63;5112991;28;20048;-69
2023/09/03 04:44:08;;;;;;;5.25;2.00;;;;;;;24.46;54.73;100752.47;5113084;28;20040;-69
2023/09/03 04:46:36;;;;;;;4.00;2.17;;;;;;;24.47;54.54;100745.97;5113025;28;20048;-68
2023/09/03 04:49:05;;;;;;;3.42;2.10;;;;;;;24.46;54.61;100736.09;5112764;28;20051;-69
2023/09/03 04:51:34;;;;;;;4.95;2.15;;;;;;;24.47;54.50;100740.53;5112210;28;20512;-69
2023/09/03 04:54:04;;;;;;;4.25;2.05;;;;;;;24.46;54.25;100736.09;5112645;28;20047;-68
2023/09/03 04:56:32;;;;;;;3.60;2.10;;;;;;;24.47;54.29;100735.06;5112535;28;20134;-68
2023/09/03 04:59:00;;;;;;;4.68;2.00;;;;;;;24.45;54.00;100734.41;5112635;28;20108;-69
2023/09/03 05:01:28;;;;;;;3.53;2.00;;;;;;;24.47;53.95;100742.41;5112733;28;20048;-68
2023/09/03 05:03:57;;;;;;;2.70;1.50;;;;;;;24.46;53.75;100747.00;5112997;28;20063;-68
2023/09/03 05:06:25;;;;;;;3.15;1.67;;;;;;;24.47;53.70;100743.25;5113131;28;20047;-69
2023/09/03 05:08:53;;;;;;;3.38;2.08;;;;;;;24.47;53.85;100737.81;5110064;28;20051;-69
2023/09/03 05:11:22;;;;;;;2.58;1.65;;;;;;;24.48;53.42;100731.31;5108375;28;20515;-68
2023/09/03 05:13:51;;;;;;;3.55;1.80;;;;;;;24.47;53.56;100729.63;5112495;28;20124;-68
2023/09/03 05:16:19;;;;;;;3.53;1.67;;;;;;;24.48;53.57;100727.75;5112146;28;20100;-69
2023/09/03 05:18:47;;;;;;;4.20;1.88;;;;;;;24.47;53.30;100715.13;5112284;28;20100;-69
2023/09/03 05:21:15;;;;;;;2.90;1.50;;;;;;;24.46;53.46;100708.84;5112214;28;20066;-69
2023/09/03 05:23:44;;;;;;;2.95;1.60;;;;;;;24.46;53.27;100708.84;5112232;28;20083;-68
2023/09/03 05:26:12;;;;;;;3.10;1.80;;;;;;;24.46;53.33;100710.72;5112407;28;20047;-68
2023/09/03 05:28:41;;;;;;;2.90;1.58;;;;;;;24.46;53.06;100729.81;5112167;28;20540;-68
2023/09/03 05:31:11;;;;;;;2.10;1.30;;;;;;;24.45;53.55;100734.41;5112134;28;20043;-68
2023/09/03 05:33:39;;;;;;;2.67;1.45;;;;;;;24.44;53.42;100738.16;5111986;28;20055;-69
2023/09/03 05:36:07;;;;;;;5.40;1.75;;;;;;;24.43;53.11;100738.34;5113116;28;20148;-68
2023/09/03 05:38:35;;;;;;;2.65;1.50;;;;;;;24.41;53.25;100751.25;5112530;28;20052;-69
2023/09/03 05:41:04;;;;;;;3.78;1.50;;;;;;;24.41;53.23;100751.25;5112058;28;20180;-68
2023/09/03 05:43:32;;;;;;;3.53;1.50;;;;;;;24.40;53.11;100755.84;5112040;28;20052;-68
2023/09/03 05:46:01;;;;;;;2.55;1.40;;;;;;;24.40;53.09;100753.13;5111875;28;20040;-69
2023/09/03 05:48:29;;;;;;;2.28;1.38;;;;;;;24.38;52.98;100749.72;5112100;28;20051;-68
2023/09/03 05:50:59;;;;;;;3.40;1.50;;;;;;;24.39;53.12;100756.88;5112252;28;20093;-69
2023/09/03 05:53:27;;;;;;;3.45;1.45;;;;;;;24.38;53.04;100757.91;5115254;28;20150;-69
2023/09/03 05:56:04;;;;;;;2.70;1.40;;;;;;;24.38;53.07;100765.25;5116115;28;20426;-69
2023/09/03 05:58:32;;;;;;;3.58;1.77;;;;;;;24.39;53.00;100767.78;5116609;28;20052;-69
2023/09/03 06:01:05;;;;;;;2.53;1.48;;;;;;;24.39;52.89;100756.88;5116305;28;20055;-68
2023/09/03 06:03:33;;;;;;;3.15;1.30;;;;;;;24.39;52.96;100751.44;5116222;28;20044;-68
2023/09/03 06:06:03;;;;;;;2.15;1.40;;;;;;;24.39;52.87;100739.69;5116489;28;20563;-68
2023/09/03 06:08:32;;;;;;;2.45;1.40;;;;;;;24.38;53.25;100733.38;5115944;28;20083;-68
2023/09/03 06:11:00;;;;;;;3.13;1.42;;;;;;;24.38;53.08;100738.81;5115736;28;20056;-69
2023/09/03 06:13:29;;;;;;;4.63;1.50;;;;;;;24.37;53.13;100748.03;5115786;28;20052;-69
2023/09/03 06:15:58;;;;;;;2.63;1.60;;;;;;;24.36;53.26;100746.31;5115909;28;20122;-69
2023/09/03 06:18:27;;;;;;;2.50;1.42;;;;;;;24.35;53.39;100755.53;5115796;28;20047;-69
2023/09/03 06:20:56;;;;;;;3.22;1.60;;;;;;;24.35;53.14;100755.53;5115688;28;20047;-69
2023/09/03 06:23:26;;;;;;;3.33;1.60;;;;;;;24.35;53.11;100743.78;5115621;28;20044;-69
2023/09/03 06:25:54;;;;;;;2.63;1.50;;;;;;;24.36;53.21;100749.06;5115019;28;20501;-69
2023/09/03 06:28:22;;;;;;;2.28;1.30;;;;;;;24.36;53.36;100751.78;5115681;28;20040;-68
2023/09/03 06:30:52;;;;;;;1.80;1.25;;;;;;;24.35;53.16;100758.25;5115683;28;20096;-69
2023/09/03 06:33:20;;;;;;;2.42;1.30;;;;;;;24.35;53.25;100754.69;5115607;28;20090;-69
2023/09/03 06:35:50;;;;;;;2.83;1.45;;;;;;;24.37;53.22;100758.09;5115482;28;20048;-69
2023/09/03 06:38:18;;;;;;;2.97;1.52;;;;;;;24.37;53.12;100756.22;5116273;28;20048;-69
2023/09/03 06:40:49;;;;;;;2.80;1.40;;;;;;;24.38;53.32;100774.25;5116312;28;20043;-69
2023/09/03 06:43:17;;;;;;;4.22;1.50;;;;;;;24.38;53.21;100768.81;5115327;28;20044;-68
2023/09/03 06:45:47;;;;;;;2.28;1.15;;;;;;;24.40;53.20;100765.91;5129902;27;20054;-68
2023/09/03 06:48:15;;;;;;;3.63;1.50;;;;;;;24.40;53.32;100780.41;5135876;27;20047;-69
2023/09/03 06:50:44;;;;;;;1.95;1.15;;;;;;;24.41;53.37;100782.09;5135647;27;20507;-69
2023/09/03 06:53:13;;;;;;;2.85;1.77;;;;;;;24.41;53.41;100775.78;5135409;27;20154;-69
2023/09/03 06:55:44;;;;;;;3.30;1.60;;;;;;;24.42;53.25;100763.91;5135638;27;20043;-69
2023/09/03 06:58:12;;;;;;;2.75;1.27;;;;;;;24.43;53.33;100762.88;5135576;27;20050;-69
2023/09/03 07:00:42;;;;;;;3.00;1.50;;;;;;;24.43;53.19;100769.16;5134832;27;20529;-69
2023/09/03 07:03:10;;;;;;;3.13;1.40;;;;;;;24.43;53.30;100766.44;5135330;27;20050;-69
2023/09/03 07:05:40;;;;;;;2.70;1.33;;;;;;;24.42;52.95;100756.56;5135329;27;20047;-69
2023/09/03 07:08:08;;;;;;;2.78;1.42;;;;;;;24.44;53.10;100768.16;5135461;27;20046;-69
2023/09/03 07:10:38;;;;;;;1.60;1.05;;;;;;;24.43;52.90;100763.72;5135298;27;20055;-69
2023/09/03 07:13:06;;;;;;;2.97;1.20;;;;;;;24.45;52.89;100756.22;5135356;27;20045;-69
2023/09/03 07:15:36;;;;;;;1.80;1.20;;;;;;;24.45;53.14;100745.31;5135089;27;20053;-69
2023/09/03 07:18:06;;;;;;;2.70;1.30;;;;;;;24.46;53.17;100746.16;5135306;27;20051;-69
2023/09/03 07:20:34;;;;;;;2.97;1.00;;;;;;;24.45;53.14;100756.22;5135287;27;20047;-69
2023/09/03 07:23:03;;;;;;;3.38;1.17;;;;;;;24.48;53.09;100755.00;5135261;27;20066;-69
2023/09/03 07:25:34;;;;;;;2.35;1.27;;;;;;;24.47;52.86;100748.72;5134957;27;20047;-69
2023/09/03 07:28:04;;;;;;;2.38;1.13;;;;;;;24.50;52.72;100747.50;5134909;27;20506;-68
2023/09/03 07:30:32;;;;;;;1.83;1.00;;;;;;;24.50;52.80;100745.63;5131583;27;20075;-68
2023/09/03 07:33:01;;;;;;;2.20;1.00;;;;;;;24.51;52.62;100750.09;5123150;27;20126;-70
2023/09/03 07:35:32;;;;;;;1.63;1.10;;;;;;;24.52;52.63;100749.06;5124951;27;20422;-64
2023/09/03 07:38:00;;;;;;;2.28;1.00;;;;;;;24.53;52.65;100745.31;5124378;27;20096;-68
2023/09/03 07:40:28;;;;;;;3.42;1.30;;;;;;;24.53;52.48;100748.03;5134947;27;20058;-68
2023/09/03 07:42:57;;;;;;;2.20;1.10;;;;;;;24.52;52.45;100735.44;5135031;27;20039;-68
2023/09/03 07:45:26;;;;;;;2.25;1.10;;;;;;;24.54;52.52;100751.63;5134607;27;20469;-68
2023/09/03 07:47:54;;;;;;;2.20;1.20;;;;;;;24.54;52.56;100747.00;5134651;27;20047;-68
2023/09/03 07:50:23;;;;;;;1.90;0.93;;;;;;;24.55;52.35;100750.59;5134820;27;20131;-69
2023/09/03 07:52:51;;;;;;;1.73;1.10;;;;;;;24.57;52.24;100747.69;5125927;27;20035;-70
2023/09/03 07:55:19;;;;;;;2.08;1.17;;;;;;;24.58;52.35;100754.84;5114325;28;20051;-70
2023/09/03 07:57:47;;;;;;;1.95;1.10;;;;;;;24.55;52.46;100740.53;5114778;28;20079;-69
2023/09/03 08:00:16;;;;;;;2.05;1.35;;;;;;;24.50;52.06;100734.72;5114082;28;20090;-70
2023/09/03 08:02:48;;;;;;;2.13;1.00;;;;;;;24.45;52.35;100737.13;5113651;28;20047;-70
2023/09/03 08:05:17;;;;;;;1.60;1.00;;;;;;;24.42;52.25;100744.81;5113709;28;20052;-69
2023/09/03 08:07:45;;;;;;;2.38;0.93;;;;;;;24.41;52.34;100753.97;5113539;28;20043;-69
2023/09/03 08:10:13;;;;;;;2.00;0.95;;;;;;;24.40;52.27;100742.22;5113416;28;20435;-69
2023/09/03 08:12:42;;;;;;;1.83;1.00;;;;;;;24.42;52.14;100745.66;5113776;28;20070;-70
2023/09/03 08:15:11;;;;;;;1.60;0.90;;;;;;;24.39;52.30;100751.44;5115560;27;20054;-69
2023/09/03 08:17:39;;;;;;;1.88;0.90;;;;;;;24.38;51.88;100749.72;5124246;27;20092;-68
2023/09/03 08:20:09;;;;;;;1.70;1.00;;;;;;;24.36;52.00;100753.66;5123349;27;20134;-69
2023/09/03 08:22:38;;;;;;;2.45;0.95;;;;;;;24.34;52.18;100753.81;5121997;27;20047;-69
2023/09/03 08:25:07;;;;;;;1.88;1.13;;;;;;;24.32;51.92;100760.44;5123106;27;20054;-69
2023/09/03 08:27:35;;;;;;;1.83;1.15;;;;;;;24.27;51.99;100758.22;5123959;27;20488;-69
2023/09/03 08:30:04;;;;;;;1.85;1.05;;;;;;;24.26;51.95;100751.06;5122878;27;20055;-69
2023/09/03 08:32:32;;;;;;;2.70;1.30;;;;;;;24.26;52.12;100748.34;5116683;27;20039;-69
2023/09/03 08:35:00;;;;;;;1.63;1.00;;;;;;;24.26;52.31;100745.59;5113247;28;20043;-69
2023/09/03 08:37:30;;;;;;;2.38;1.30;;;;;;;24.29;52.09;100748.00;5114940;28;20040;-74
2023/09/03 08:39:59;;;;;;;2.72;1.10;;;;;;;24.32;52.01;100764.06;5114218;28;20048;-72
2023/09/03 08:42:28;;;;;;;2.70;0.80;;;;;;;24.34;52.33;100759.28;5113840;28;20103;-71
2023/09/03 08:45:03;;;;;;;2.28;1.02;;;;;;;24.37;52.46;100753.47;5113147;28;20043;-69
2023/09/03 08:47:32;;;;;;;3.58;1.20;;;;;;;24.40;52.16;100761.31;5112976;28;20048;-71
2023/09/03 08:50:01;;;;;;;2.35;1.17;;;;;;;24.42;52.48;100756.56;5094806;28;20047;-70
2023/09/03 08:52:33;;;;;;;2.47;1.30;;;;;;;24.43;52.54;100758.28;5112941;28;20055;-69
2023/09/03 08:55:02;;;;;;;2.90;1.38;;;;;;;24.43;52.98;100758.28;5112906;28;20126;-72
2023/09/03 08:57:34;;;;;;;4.88;1.55;;;;;;;24.43;52.96;100761.00;5112646;28;20047;-70
2023/09/03 09:00:05;;;;;;;2.53;1.13;;;;;;;24.46;53.30;100765.25;5111029;28;20076;-70
2023/09/03 09:02:37;;;;;;;3.10;1.10;;;;;;;24.45;53.07;100749.91;5121360;27;20754;-70
2023/09/03 09:05:09;;;;;;;2.90;1.23;;;;;;;24.48;53.21;100761.31;5117762;27;20043;-70
2023/09/03 09:07:40;;;;;;;2.92;1.25;;;;;;;24.49;53.42;100760.28;5120113;27;20047;-71
2023/09/03 09:10:10;;;;;;;3.55;1.58;;;;;;;24.51;53.24;100771.91;5118623;27;20382;-69
2023/09/03 09:12:46;;;;;;;2.70;1.25;;;;;;;24.54;53.20;100770.72;5111271;27;20504;-70
2023/09/03 09:15:14;;;;;;;2.15;1.30;;;;;;;24.55;53.14;100762.34;5110880;28;20054;-70
2023/09/03 09:17:43;;;;;;;2.28;1.20;;;;;;;24.61;52.99;100759.94;5110704;28;20108;-70
2023/09/03 09:20:14;;;;;;;4.90;1.30;;;;;;;24.63;52.96;100747.88;5111720;28;20107;-70
2023/09/03 09:22:45;;;;;;;2.72;1.40;;;;;;;24.64;53.14;100748.72;5111510;28;20083;-70
2023/09/03 09:25:19;;;;;;;3.17;1.60;;;;;;;24.68;53.12;100752.78;5111791;28;20561;-70
2023/09/03 09:27:47;;;;;;;3.42;1.50;;;;;;;24.72;53.13;100765.09;5110871;28;20100;-70
2023/09/03 09:30:19;;;;;;;3.45;1.38;;;;;;;24.74;53.07;100765.75;5112470;28;20421;-70
2023/09/03 09:32:47;;;;;;;3.55;1.35;;;;;;;24.75;52.95;100756.53;5112599;28;20047;-70
2023/09/03 09:35:24;;;;;;;3.08;1.60;;;;;;;24.79;53.14;100785.19;5112250;28;20496;-70
2023/09/03 09:37:54;;;;;;;2.78;1.30;;;;;;;24.81;53.25;100774.97;5106517;28;20055;-71
2023/09/03 09:40:36;;;;;;;2.30;1.25;;;;;;;24.83;53.48;100781.09;5102497;28;20547;-69
2023/09/03 09:43:07;;;;;;;4.70;1.20;;;;;;;24.84;53.10;100772.72;5114036;28;20047;-68
2023/09/03 09:45:47;;;;;;;2.35;1.20;;;;;;;24.83;53.15;100762.00;5114800;28;20161;-70
2023/09/03 09:48:16;;;;;;;2.38;1.30;;;;;;;24.87;53.01;100754.31;5112871;28;20039;-69
2023/09/03 09:50:45;;;;;;;2.75;1.27;;;;;;;24.89;53.58;100768.63;5112143;28;20048;-68
2023/09/03 09:53:26;;;;;;;2.30;1.27;;;;;;;24.89;53.27;100763.16;5112136;28;20047;-70
2023/09/03 09:55:58;;;;;;;3.88;1.52;;;;;;;24.90;53.33;100763.03;5111546;28;20047;-70
2023/09/03 09:58:36;;;;;;;1.90;1.15;;;;;;;24.93;53.02;100775.47;5111787;28;20056;-69
2023/09/03 10:01:05;;;;;;;2.53;1.20;;;;;;;24.94;52.77;100774.44;5112019;28;20044;-70
2023/09/03 10:03:43;;;;;;;1.90;1.00;;;;;;;24.91;52.49;100772.91;5111657;28;20672;-70
2023/09/03 10:06:14;;;;;;;1.67;1.02;;;;;;;24.91;52.44;100782.97;5093961;28;20051;-69
2023/09/03 10:08:45;;;;;;;2.35;1.13;;;;;;;24.92;52.77;100785.53;5111979;28;20112;-68
2023/09/03 10:11:19;;;;;;;2.30;1.08;;;;;;;24.90;52.76;100770.31;5111245;28;20058;-68
2023/09/03 10:13:48;;;;;;;2.70;1.10;;;;;;;24.90;52.43;100770.31;5111112;28;20523;-70
2023/09/03 10:16:19;;;;;;;3.05;1.00;;;;;;;24.91;52.68;100772.06;5093635;28;20073;-69
2023/09/03 10:18:49;;;;;;;3.88;1.00;;;;;;;24.90;52.61;100771.22;5111308;28;20061;-69
2023/09/03 10:21:21;;;;;;;3.05;1.08;;;;;;;24.91;52.59;100774.78;5111588;28;20044;-69
2023/09/03 10:24:14;;;;;;;1.60;1.00;;;;;;;24.91;52.47;100772.06;5111578;28;20048;-71
2023/09/03 10:26:45;;;;;;;1.88;1.10;;;;;;;24.94;52.25;100772.56;5111080;28;20052;-67
2023/09/03 10:29:19;;;;;;;1.92;1.05;;;;;;;24.96;52.48;100770.50;5110489;28;20054;-68
2023/09/03 10:31:49;;;;;;;3.28;1.40;;;;;;;24.95;52.51;100766.06;5108220;28;20078;-69
2023/09/03 10:34:18;;;;;;;1.50;1.08;;;;;;;24.94;52.55;100767.09;5111384;28;20058;-68
2023/09/03 10:37:04;;;;;;;1.80;1.10;;;;;;;24.95;52.89;100770.66;5110936;28;20047;-68
2023/09/03 10:39:34;;;;;;;2.03;1.30;;;;;;;24.96;52.93;100758.72;5113827;28;20065;-69
2023/09/03 10:42:32;;;;;;;2.90;1.38;;;;;;;24.97;52.92;100755.81;5115387;28;20077;-69
2023/09/03 10:45:02;;;;;;;3.78;1.20;;;;;;;25.01;52.99;100767.25;5031756;28;20562;-69
2023/09/03 10:47:30;;;;;;;2.42;1.30;;;;;;;25.03;52.90;100757.91;5093735;28;20100;-69
2023/09/03 10:49:59;;;;;;;2.03;1.20;;;;;;;25.05;53.08;100753.13;5112840;28;20086;-68
2023/09/03 10:52:40;;;;;;;3.30;1.50;;;;;;;25.05;53.19;100753.13;5115223;28;20136;-68
2023/09/03 10:55:15;;;;;;;2.30;1.20;;;;;;;25.06;53.36;100752.09;5114947;28;20047;-69
2023/09/03 10:57:44;;;;;;;2.40;1.02;;;;;;;25.09;53.29;100759.94;5114705;28;20047;-68
2023/09/03 11:00:15;;;;;;;1.90;1.23;;;;;;;25.08;53.46;100757.38;5115143;28;20062;-69
2023/09/03 11:02:45;;;;;;;2.25;1.33;;;;;;;25.10;53.44;100756.19;5114665;28;20055;-69
2023/09/03 11:05:23;;;;;;;2.33;1.33;;;;;;;25.10;53.80;100745.28;5115001;28;20040;-69
2023/09/03 11:08:31;;;;;;;2.17;1.00;;;;;;;25.14;53.70;100755.81;5114966;28;20508;-69
2023/09/03 11:11:01;;;;;;;3.90;1.40;;;;;;;25.14;54.10;100764.00;5114549;28;20051;-70
2023/09/03 11:13:30;;;;;;;2.17;1.23;;;;;;;25.14;54.02;100751.22;5114875;28;20044;-70
2023/09/03 11:16:06;;;;;;;2.25;1.50;;;;;;;25.15;53.98;100754.81;5114491;28;20047;-70
2023/09/03 11:18:35;;;;;;;1.92;1.38;;;;;;;25.14;54.27;100747.63;5114774;28;20217;-69
2023/09/03 11:21:03;;;;;;;2.10;1.60;;;;;;;25.11;54.44;100752.44;5114443;28;20131;-68
2023/09/03 11:23:34;;;;;;;2.65;1.50;;;;;;;25.16;54.67;100751.03;5114868;28;20043;-69
2023/09/03 11:26:13;;;;;;;3.50;1.50;;;;;;;25.15;54.74;100746.59;5114347;28;20509;-69
2023/09/03 11:28:45;;;;;;;3.03;1.60;;;;;;;25.14;54.86;100755.81;5114663;28;20059;-68
2023/09/03 11:31:14;;;;;;;1.95;1.35;;;;;;;25.13;55.26;100746.78;5114416;28;20051;-68
2023/09/03 11:33:43;;;;;;;2.58;1.60;;;;;;;25.09;55.39;100743.56;5114590;28;20066;-69
2023/09/03 11:36:11;;;;;;;2.92;1.60;;;;;;;25.12;55.22;100742.34;5115905;28;20096;-69
2023/09/03 11:38:40;;;;;;;2.17;1.55;;;;;;;25.14;55.21;100734.84;5114192;28;20134;-70